createdAt,value
2018-06-23T00:00:33.593Z,13.15
2018-06-23T00:01:33.596Z,13.30
2018-06-23T00:02:33.593Z,13.13
2018-06-23T00:03:33.590Z,13.15
2018-06-23T00:04:33.592Z,13.13
2018-06-23T00:05:33.592Z,13.18
2018-06-23T00:06:33.595Z,13.12
2018-06-23T00:07:33.581Z,13.11
2018-06-23T00:08:33.593Z,13.16
2018-06-23T00:09:33.589Z,13.13
2018-06-23T00:10:33.588Z,13.15
2018-06-23T00:11:33.588Z,13.18
2018-06-23T00:12:33.585Z,13.15
2018-06-23T00:13:33.590Z,13.12
2018-06-23T00:14:33.586Z,13.16
2018-06-23T00:15:33.581Z,13.13
2018-06-23T00:16:33.584Z,13.12
2018-06-23T00:17:33.582Z,13.25
2018-06-23T00:18:33.591Z,13.27
2018-06-23T00:19:33.582Z,13.18
2018-06-23T00:20:33.581Z,13.20
2018-06-23T00:21:33.581Z,13.23
2018-06-23T00:22:33.581Z,13.30
2018-06-23T00:23:33.583Z,13.15
2018-06-23T00:24:33.580Z,13.13
2018-06-23T00:25:33.581Z,13.13
2018-06-23T00:26:33.580Z,13.03
2018-06-23T00:27:33.574Z,13.09
2018-06-23T00:28:33.580Z,13.16
2018-06-23T00:29:33.579Z,13.13
2018-06-23T00:30:33.575Z,13.12
2018-06-23T00:31:33.576Z,13.16
2018-06-23T00:32:33.574Z,13.12
2018-06-23T00:33:33.574Z,13.18
2018-06-23T00:34:33.576Z,13.13
2018-06-23T00:35:33.574Z,13.12
2018-06-23T00:36:33.575Z,13.11
2018-06-23T00:37:33.571Z,13.13
2018-06-23T00:38:33.576Z,13.15
2018-06-23T00:39:33.573Z,13.15
2018-06-23T00:40:33.572Z,13.05
2018-06-23T00:41:33.571Z,13.11
2018-06-23T00:42:33.571Z,13.05
2018-06-23T00:43:33.571Z,13.08
2018-06-23T00:44:33.570Z,13.11
2018-06-23T00:45:33.571Z,12.98
2018-06-23T00:46:33.571Z,12.94
2018-06-23T00:47:33.570Z,12.98
2018-06-23T00:48:33.571Z,12.91
2018-06-23T00:49:33.566Z,12.91
2018-06-23T00:50:33.568Z,13.03
2018-06-23T00:51:33.570Z,12.95
2018-06-23T00:52:33.571Z,12.94
2018-06-23T00:53:33.568Z,12.91
2018-06-23T00:54:33.568Z,12.90
2018-06-23T00:55:33.564Z,12.97
2018-06-23T00:56:33.561Z,12.93
2018-06-23T00:57:33.562Z,12.87
2018-06-23T00:58:33.563Z,12.95
2018-06-23T00:59:33.564Z,12.93
2018-06-23T01:00:33.560Z,12.91
2018-06-23T01:01:33.555Z,12.87
2018-06-23T01:02:33.556Z,12.85
2018-06-23T01:03:33.564Z,12.83
2018-06-23T01:04:33.564Z,12.83
2018-06-23T01:05:33.561Z,12.80
2018-06-23T01:06:33.557Z,12.76
2018-06-23T01:07:33.557Z,12.82
2018-06-23T01:08:33.555Z,12.79
2018-06-23T01:09:33.554Z,12.75
2018-06-23T01:10:33.560Z,12.78
2018-06-23T01:11:33.551Z,12.75
2018-06-23T01:12:33.548Z,12.73
2018-06-23T01:13:33.551Z,12.79
2018-06-23T01:14:33.548Z,12.82
2018-06-23T01:15:33.549Z,12.80
2018-06-23T01:16:33.547Z,12.76
2018-06-23T01:17:33.546Z,12.75
2018-06-23T01:18:33.546Z,12.65
2018-06-23T01:19:33.553Z,12.68
2018-06-23T01:20:33.544Z,12.64
2018-06-23T01:21:33.544Z,12.64
2018-06-23T01:22:33.542Z,12.64
2018-06-23T01:23:33.543Z,12.61
2018-06-23T01:24:33.541Z,12.73
2018-06-23T01:25:33.535Z,12.60
2018-06-23T01:26:33.541Z,12.62
2018-06-23T01:27:33.542Z,12.68
2018-06-23T01:28:33.531Z,12.60
2018-06-23T01:29:33.533Z,12.60
2018-06-23T01:30:33.538Z,12.64
2018-06-23T01:31:33.543Z,12.61
2018-06-23T01:32:33.533Z,12.60
2018-06-23T01:33:33.561Z,12.47
2018-06-23T01:34:33.534Z,12.61
2018-06-23T01:35:33.530Z,12.58
2018-06-23T01:36:33.528Z,12.60
2018-06-23T01:37:33.526Z,12.49
2018-06-23T01:38:33.527Z,12.49
2018-06-23T01:39:33.534Z,12.50
2018-06-23T01:40:33.524Z,12.55
2018-06-23T01:41:33.519Z,12.61
2018-06-23T01:42:33.523Z,12.53
2018-06-23T01:43:33.520Z,12.55
2018-06-23T01:44:33.524Z,12.57
2018-06-23T01:45:33.515Z,12.60
2018-06-23T01:46:33.519Z,12.61
2018-06-23T01:47:33.522Z,12.61
2018-06-23T01:48:33.514Z,12.61
2018-06-23T01:49:33.517Z,12.46
2018-06-23T01:50:33.516Z,12.50
2018-06-23T01:51:33.516Z,12.46
2018-06-23T01:52:33.516Z,12.45
2018-06-23T01:53:33.505Z,12.45
2018-06-23T01:54:33.510Z,12.31
2018-06-23T01:55:33.514Z,12.25
2018-06-23T01:56:33.509Z,12.29
2018-06-23T01:57:33.509Z,12.40
2018-06-23T01:58:33.508Z,12.32
2018-06-23T01:59:33.506Z,12.37
2018-06-23T02:00:33.500Z,12.46
2018-06-23T02:01:33.505Z,12.46
2018-06-23T02:02:33.504Z,12.35
2018-06-23T02:03:33.503Z,12.36
2018-06-23T02:04:33.499Z,12.21
2018-06-23T02:05:33.503Z,12.32
2018-06-23T02:06:33.493Z,12.39
2018-06-23T02:07:33.499Z,12.29
2018-06-23T02:08:33.496Z,12.32
2018-06-23T02:09:33.501Z,12.35
2018-06-23T02:10:33.493Z,12.31
2018-06-23T02:11:33.496Z,12.27
2018-06-23T02:12:33.491Z,12.27
2018-06-23T02:13:33.490Z,12.28
2018-06-23T02:14:33.491Z,12.27
2018-06-23T02:15:33.491Z,12.22
2018-06-23T02:16:33.489Z,12.24
2018-06-23T02:17:33.488Z,12.21
2018-06-23T02:18:33.486Z,12.22
2018-06-23T02:19:33.488Z,12.17
2018-06-23T02:20:33.483Z,12.18
2018-06-23T02:21:33.482Z,12.17
2018-06-23T02:22:33.480Z,12.15
2018-06-23T02:23:33.482Z,12.15
2018-06-23T02:24:33.479Z,12.20
2018-06-23T02:25:33.475Z,12.10
2018-06-23T02:26:33.477Z,12.09
2018-06-23T02:27:33.474Z,12.10
2018-06-23T02:28:33.473Z,12.10
2018-06-23T02:29:33.472Z,12.09
2018-06-23T02:30:33.479Z,12.06
2018-06-23T02:31:33.472Z,12.06
2018-06-23T02:32:33.469Z,12.06
2018-06-23T02:33:33.468Z,12.12
2018-06-23T02:34:33.465Z,12.12
2018-06-23T02:35:33.459Z,12.17
2018-06-23T02:36:33.456Z,12.18
2018-06-23T02:37:33.462Z,12.10
2018-06-23T02:38:33.461Z,12.15
2018-06-23T02:39:33.459Z,12.13
2018-06-23T02:40:33.452Z,12.06
2018-06-23T02:41:33.462Z,12.17
2018-06-23T02:42:33.459Z,12.20
2018-06-23T02:43:33.458Z,12.17
2018-06-23T02:44:33.452Z,12.20
2018-06-23T02:45:33.450Z,12.15
2018-06-23T02:46:33.455Z,12.09
2018-06-23T02:47:33.449Z,12.03
2018-06-23T02:48:33.447Z,11.95
2018-06-23T02:49:33.446Z,12.09
2018-06-23T02:50:33.445Z,11.99
2018-06-23T02:51:33.446Z,12.02
2018-06-23T02:52:33.440Z,11.84
2018-06-23T02:53:33.440Z,11.94
2018-06-23T02:54:33.438Z,11.95
2018-06-23T02:55:33.436Z,11.94
2018-06-23T02:56:33.430Z,11.84
2018-06-23T02:57:33.434Z,11.87
2018-06-23T02:58:33.434Z,11.83
2018-06-23T02:59:33.431Z,11.94
2018-06-23T03:00:33.428Z,11.94
2018-06-23T03:01:33.430Z,11.81
2018-06-23T03:02:33.428Z,11.95
2018-06-23T03:03:33.426Z,11.90
2018-06-23T03:04:33.423Z,11.88
2018-06-23T03:05:33.423Z,11.87
2018-06-23T03:06:33.422Z,11.88
2018-06-23T03:07:33.418Z,11.90
2018-06-23T03:08:33.421Z,11.91
2018-06-23T03:09:33.416Z,11.97
2018-06-23T03:10:33.417Z,11.97
2018-06-23T03:11:33.414Z,12.00
2018-06-23T03:12:33.408Z,12.00
2018-06-23T03:13:33.410Z,11.90
2018-06-23T03:14:33.404Z,11.91
2018-06-23T03:15:33.406Z,11.87
2018-06-23T03:16:33.406Z,11.75
2018-06-23T03:17:33.398Z,11.87
2018-06-23T03:18:33.404Z,11.91
2018-06-23T03:19:33.404Z,11.87
2018-06-23T03:20:33.399Z,11.68
2018-06-23T03:21:33.400Z,11.68
2018-06-23T03:22:33.396Z,11.70
2018-06-23T03:23:33.398Z,11.69
2018-06-23T03:24:33.392Z,11.81
2018-06-23T03:25:33.393Z,11.68
2018-06-23T03:26:33.393Z,11.68
2018-06-23T03:27:33.391Z,11.66
2018-06-23T03:28:33.385Z,11.69
2018-06-23T03:29:33.381Z,11.65
2018-06-23T03:30:33.385Z,11.66
2018-06-23T03:31:33.384Z,11.65
2018-06-23T03:32:33.379Z,11.70
2018-06-23T03:33:33.379Z,11.65
2018-06-23T03:34:33.377Z,11.66
2018-06-23T03:35:33.374Z,11.65
2018-06-23T03:36:33.367Z,11.70
2018-06-23T03:37:33.386Z,11.68
2018-06-23T03:38:33.371Z,11.68
2018-06-23T03:39:33.369Z,11.75
2018-06-23T03:40:33.373Z,11.69
2018-06-23T03:41:33.365Z,11.77
2018-06-23T03:42:33.363Z,11.69
2018-06-23T03:43:33.364Z,11.75
2018-06-23T03:44:33.360Z,11.84
2018-06-23T03:45:33.357Z,11.83
2018-06-23T03:46:33.360Z,11.73
2018-06-23T03:47:33.348Z,11.84
2018-06-23T03:48:33.355Z,11.84
2018-06-23T03:49:33.355Z,11.91
2018-06-23T03:50:33.353Z,11.94
2018-06-23T03:51:33.350Z,12.02
2018-06-23T03:52:33.345Z,11.91
2018-06-23T03:53:33.345Z,11.91
2018-06-23T03:54:33.348Z,11.99
2018-06-23T03:55:33.336Z,11.94
2018-06-23T03:56:33.341Z,11.90
2018-06-23T03:57:33.339Z,11.81
2018-06-23T03:58:33.348Z,11.73
2018-06-23T03:59:33.345Z,11.70
2018-06-23T04:00:33.337Z,11.84
2018-06-23T04:01:33.332Z,11.88
2018-06-23T04:02:33.331Z,12.04
2018-06-23T04:03:33.332Z,11.97
2018-06-23T04:04:33.328Z,12.04
2018-06-23T04:05:33.326Z,11.91
2018-06-23T04:06:33.327Z,11.97
2018-06-23T04:07:33.325Z,12.10
2018-06-23T04:08:33.325Z,12.04
2018-06-23T04:09:33.321Z,12.13
2018-06-23T04:10:33.319Z,12.09
2018-06-23T04:11:33.402Z,12.15
2018-06-23T04:12:33.314Z,12.17
2018-06-23T04:13:33.314Z,12.20
2018-06-23T04:14:33.314Z,12.20
2018-06-23T04:15:33.312Z,12.24
2018-06-23T04:16:33.310Z,12.36
2018-06-23T04:17:33.310Z,12.24
2018-06-23T04:18:33.308Z,12.22
2018-06-23T04:19:33.311Z,12.24
2018-06-23T04:20:33.302Z,12.21
2018-06-23T04:21:33.301Z,12.20
2018-06-23T04:22:33.303Z,12.18
2018-06-23T04:23:33.302Z,12.22
2018-06-23T04:24:33.303Z,12.20
2018-06-23T04:25:33.300Z,12.27
2018-06-23T04:26:33.300Z,12.27
2018-06-23T04:27:33.299Z,12.27
2018-06-23T04:28:33.298Z,12.27
2018-06-23T04:29:33.296Z,12.28
2018-06-23T04:30:33.295Z,12.24
2018-06-23T04:31:33.295Z,12.22
2018-06-23T04:32:33.293Z,12.20
2018-06-23T04:33:33.284Z,12.18
2018-06-23T04:34:33.291Z,12.25
2018-06-23T04:35:33.292Z,12.20
2018-06-23T04:36:33.289Z,12.21
2018-06-23T04:37:33.288Z,12.24
2018-06-23T04:38:33.290Z,12.20
2018-06-23T04:39:33.287Z,12.32
2018-06-23T04:40:33.290Z,12.29
2018-06-23T04:41:33.285Z,12.29
2018-06-23T04:42:33.287Z,12.21
2018-06-23T04:43:33.282Z,12.35
2018-06-23T04:44:33.282Z,12.35
2018-06-23T04:45:33.281Z,12.22
2018-06-23T04:46:33.286Z,12.18
2018-06-23T04:47:33.279Z,12.20
2018-06-23T04:48:33.278Z,12.18
2018-06-23T04:49:33.277Z,12.24
2018-06-23T04:50:33.275Z,12.22
2018-06-23T04:51:33.277Z,12.18
2018-06-23T04:52:33.274Z,12.12
2018-06-23T04:53:33.275Z,12.20
2018-06-23T04:54:33.272Z,12.20
2018-06-23T04:55:33.271Z,12.25
2018-06-23T04:56:33.270Z,12.22
2018-06-23T04:57:33.268Z,12.21
2018-06-23T04:58:33.266Z,12.31
2018-06-23T04:59:33.266Z,12.28
2018-06-23T05:00:33.368Z,12.27
2018-06-23T05:01:33.264Z,12.32
2018-06-23T05:02:33.267Z,12.24
2018-06-23T05:03:33.257Z,12.21
2018-06-23T05:04:33.264Z,12.32
2018-06-23T05:05:33.257Z,12.35
2018-06-23T05:06:33.254Z,12.36
2018-06-23T05:07:33.265Z,12.39
2018-06-23T05:08:33.257Z,12.46
2018-06-23T05:09:33.257Z,12.60
2018-06-23T05:10:33.258Z,12.58
2018-06-23T05:11:33.257Z,12.57
2018-06-23T05:12:33.256Z,12.64
2018-06-23T05:13:33.253Z,12.60
2018-06-23T05:14:33.255Z,12.60
2018-06-23T05:15:33.253Z,12.62
2018-06-23T05:16:33.255Z,12.57
2018-06-23T05:17:33.252Z,12.61
2018-06-23T05:18:33.250Z,12.67
2018-06-23T05:19:33.247Z,12.75
2018-06-23T05:20:33.252Z,12.79
2018-06-23T05:21:33.247Z,12.79
2018-06-23T05:22:33.247Z,12.82
2018-06-23T05:23:33.248Z,12.78
2018-06-23T05:24:33.249Z,12.80
2018-06-23T05:25:33.245Z,12.79
2018-06-23T05:26:33.246Z,12.68
2018-06-23T05:27:33.242Z,12.70
2018-06-23T05:28:33.243Z,12.82
2018-06-23T05:29:33.244Z,12.93
2018-06-23T05:30:33.248Z,12.91
2018-06-23T05:31:33.243Z,12.93
2018-06-23T05:32:33.241Z,12.91
2018-06-23T05:33:33.240Z,12.91
2018-06-23T05:34:33.240Z,12.91
2018-06-23T05:35:33.242Z,12.90
2018-06-23T05:36:33.241Z,12.93
2018-06-23T05:37:33.238Z,13.00
2018-06-23T05:38:33.236Z,13.09
2018-06-23T05:39:33.239Z,13.04
2018-06-23T05:40:33.237Z,13.09
2018-06-23T05:41:33.243Z,13.12
2018-06-23T05:42:33.237Z,13.15
2018-06-23T05:43:33.235Z,13.09
2018-06-23T05:44:33.232Z,13.22
2018-06-23T05:45:33.236Z,13.30
2018-06-23T05:46:33.236Z,13.52
2018-06-23T05:47:33.238Z,13.62
2018-06-23T05:48:33.236Z,13.70
2018-06-23T05:49:33.236Z,13.77
2018-06-23T05:50:33.240Z,13.83
2018-06-23T05:51:33.237Z,13.79
2018-06-23T05:52:33.235Z,13.79
2018-06-23T05:53:33.237Z,13.72
2018-06-23T05:54:33.236Z,13.62
2018-06-23T05:55:33.238Z,13.60
2018-06-23T05:56:33.236Z,13.46
2018-06-23T05:57:33.230Z,13.39
2018-06-23T05:58:33.237Z,13.27
2018-06-23T05:59:33.239Z,13.30
2018-06-23T06:00:33.235Z,13.20
2018-06-23T06:01:33.247Z,13.30
2018-06-23T06:02:33.239Z,13.35
2018-06-23T06:03:33.238Z,13.52
2018-06-23T06:04:33.240Z,13.59
2018-06-23T06:05:33.240Z,13.68
2018-06-23T06:06:33.234Z,13.65
2018-06-23T06:07:33.242Z,13.60
2018-06-23T06:08:33.242Z,13.68
2018-06-23T06:09:33.247Z,13.74
2018-06-23T06:10:33.242Z,13.87
2018-06-23T06:11:33.243Z,13.81
2018-06-23T06:12:33.242Z,13.90
2018-06-23T06:13:33.245Z,13.83
2018-06-23T06:14:33.246Z,13.68
2018-06-23T06:15:33.248Z,13.44
2018-06-23T06:16:33.240Z,13.50
2018-06-23T06:17:33.239Z,13.59
2018-06-23T06:18:33.244Z,13.70
2018-06-23T06:19:33.238Z,13.78
2018-06-23T06:20:33.246Z,13.83
2018-06-23T06:21:33.250Z,13.97
2018-06-23T06:22:33.249Z,14.00
2018-06-23T06:23:33.249Z,14.05
2018-06-23T06:24:33.248Z,14.07
2018-06-23T06:25:33.248Z,14.14
2018-06-23T06:26:33.251Z,14.25
2018-06-23T06:27:33.252Z,14.28
2018-06-23T06:28:33.250Z,14.11
2018-06-23T06:29:33.294Z,14.04
2018-06-23T06:30:33.255Z,14.00
2018-06-23T06:31:33.253Z,14.07
2018-06-23T06:32:33.256Z,14.15
2018-06-23T06:33:33.249Z,14.12
2018-06-23T06:34:33.256Z,14.30
2018-06-23T06:35:33.276Z,14.26
2018-06-23T06:36:33.256Z,14.37
2018-06-23T06:37:33.258Z,14.30
2018-06-23T06:38:33.257Z,14.43
2018-06-23T06:39:33.260Z,14.43
2018-06-23T06:40:33.259Z,14.47
2018-06-23T06:41:33.268Z,14.40
2018-06-23T06:42:33.263Z,14.30
2018-06-23T06:43:33.260Z,14.40
2018-06-23T06:44:33.302Z,14.29
2018-06-23T06:45:33.265Z,14.23
2018-06-23T06:46:33.262Z,14.07
2018-06-23T06:47:33.271Z,13.96
2018-06-23T06:48:33.269Z,13.95
2018-06-23T06:49:33.267Z,13.97
2018-06-23T06:50:33.264Z,14.17
2018-06-23T06:51:33.279Z,14.11
2018-06-23T06:52:33.274Z,14.18
2018-06-23T06:53:33.272Z,14.32
2018-06-23T06:54:33.275Z,14.37
2018-06-23T06:55:33.274Z,14.35
2018-06-23T06:56:33.275Z,14.17
2018-06-23T06:57:33.275Z,14.10
2018-06-23T06:58:33.278Z,14.22
2018-06-23T06:59:33.279Z,14.11
2018-06-23T07:00:33.279Z,14.23
2018-06-23T07:01:33.279Z,14.20
2018-06-23T07:02:33.275Z,14.25
2018-06-23T07:03:33.341Z,14.28
2018-06-23T07:04:33.279Z,14.12
2018-06-23T07:05:33.281Z,14.11
2018-06-23T07:06:33.286Z,14.28
2018-06-23T07:07:33.286Z,14.25
2018-06-23T07:08:33.286Z,14.36
2018-06-23T07:09:33.286Z,14.45
2018-06-23T07:10:33.287Z,14.51
2018-06-23T07:11:33.290Z,14.45
2018-06-23T07:12:33.290Z,14.51
2018-06-23T07:13:33.293Z,14.50
2018-06-23T07:14:33.293Z,14.50
2018-06-23T07:15:33.310Z,14.36
2018-06-23T07:16:33.294Z,14.41
2018-06-23T07:17:33.333Z,14.37
2018-06-23T07:18:33.298Z,14.45
2018-06-23T07:19:33.296Z,14.33
2018-06-23T07:20:33.300Z,14.29
2018-06-23T07:21:33.300Z,14.32
2018-06-23T07:22:33.300Z,14.30
2018-06-23T07:23:33.380Z,14.30
2018-06-23T07:24:33.304Z,14.18
2018-06-23T07:25:33.299Z,14.15
2018-06-23T07:26:33.306Z,14.11
2018-06-23T07:27:33.308Z,14.18
2018-06-23T07:28:33.307Z,14.14
2018-06-23T07:29:33.306Z,14.11
2018-06-23T07:30:33.312Z,14.25
2018-06-23T07:31:33.309Z,14.29
2018-06-23T07:32:33.309Z,14.30
2018-06-23T07:33:33.312Z,14.43
2018-06-23T07:34:33.409Z,14.65
2018-06-23T07:35:33.315Z,14.37
2018-06-23T07:36:33.315Z,14.32
2018-06-23T07:37:33.317Z,14.51
2018-06-23T07:38:33.316Z,14.55
2018-06-23T07:39:33.321Z,14.60
2018-06-23T07:40:33.321Z,14.65
2018-06-23T07:41:33.316Z,14.58
2018-06-23T07:42:33.341Z,14.51
2018-06-23T07:43:33.325Z,14.55
2018-06-23T07:44:33.323Z,14.43
2018-06-23T07:45:33.326Z,14.47
2018-06-23T07:46:33.395Z,14.37
2018-06-23T07:47:33.332Z,14.48
2018-06-23T07:48:33.324Z,14.47
2018-06-23T07:49:33.332Z,14.41
2018-06-23T07:50:33.332Z,14.44
2018-06-23T07:51:33.335Z,14.47
2018-06-23T07:52:33.335Z,14.50
2018-06-23T07:53:33.344Z,14.50
2018-06-23T07:54:33.337Z,14.48
2018-06-23T07:55:33.340Z,14.54
2018-06-23T07:56:33.346Z,14.44
2018-06-23T07:57:33.343Z,14.30
2018-06-23T07:58:33.342Z,14.30
2018-06-23T07:59:33.350Z,14.35
2018-06-23T08:00:33.372Z,14.25
2018-06-23T08:01:33.385Z,14.29
2018-06-23T08:02:33.348Z,14.32
2018-06-23T08:03:33.348Z,14.30
2018-06-23T08:04:33.349Z,14.08
2018-06-23T08:05:33.353Z,14.17
2018-06-23T08:06:33.356Z,14.20
2018-06-23T08:07:33.351Z,14.35
2018-06-23T08:08:33.355Z,14.36
2018-06-23T08:09:33.352Z,14.35
2018-06-23T08:10:33.348Z,14.36
2018-06-23T08:11:33.356Z,14.40
2018-06-23T08:12:33.354Z,14.50
2018-06-23T08:13:33.358Z,14.65
2018-06-23T08:14:33.352Z,14.51
2018-06-23T08:15:33.360Z,14.40
2018-06-23T08:16:33.360Z,14.43
2018-06-23T08:17:33.361Z,14.40
2018-06-23T08:18:33.375Z,14.50
2018-06-23T08:19:33.361Z,14.50
2018-06-23T08:20:33.363Z,14.47
2018-06-23T08:21:33.367Z,14.37
2018-06-23T08:22:33.366Z,14.37
2018-06-23T08:23:33.363Z,14.36
2018-06-23T08:24:33.369Z,14.36
2018-06-23T08:25:33.369Z,14.33
2018-06-23T08:26:33.498Z,14.26
2018-06-23T08:27:33.383Z,14.11
2018-06-23T08:28:33.375Z,14.08
2018-06-23T08:29:33.371Z,14.08
2018-06-23T08:30:33.384Z,13.99
2018-06-23T08:31:33.378Z,13.62
2018-06-23T08:32:33.376Z,13.35
2018-06-23T08:33:33.377Z,13.31
2018-06-23T08:34:33.373Z,13.27
2018-06-23T08:35:33.382Z,13.16
2018-06-23T08:36:33.379Z,13.13
2018-06-23T08:37:33.381Z,13.20
2018-06-23T08:38:33.383Z,13.25
2018-06-23T08:39:33.384Z,13.30
2018-06-23T08:40:33.384Z,13.20
2018-06-23T08:41:33.384Z,13.30
2018-06-23T08:42:33.385Z,13.16
2018-06-23T08:43:33.384Z,13.13
2018-06-23T08:44:33.384Z,13.18
2018-06-23T08:45:33.386Z,13.18
2018-06-23T08:46:33.385Z,13.16
2018-06-23T08:47:33.387Z,13.16
2018-06-23T08:48:33.388Z,13.16
2018-06-23T08:49:33.389Z,13.31
2018-06-23T08:50:33.389Z,13.33
2018-06-23T08:51:33.391Z,13.31
2018-06-23T08:52:33.384Z,13.33
2018-06-23T08:53:33.393Z,13.27
2018-06-23T08:54:33.388Z,13.22
2018-06-23T08:55:33.405Z,13.30
2018-06-23T08:56:33.394Z,13.41
2018-06-23T08:57:33.391Z,13.31
2018-06-23T08:58:33.391Z,13.37
2018-06-23T08:59:33.386Z,13.41
2018-06-23T09:00:33.391Z,13.31
2018-06-23T09:01:33.393Z,13.23
2018-06-23T09:02:33.398Z,13.20
2018-06-23T09:03:33.394Z,13.31
2018-06-23T09:04:33.392Z,13.52
2018-06-23T09:05:33.393Z,13.50
2018-06-23T09:06:33.394Z,13.44
2018-06-23T09:07:33.401Z,13.53
2018-06-23T09:08:33.388Z,13.50
2018-06-23T09:09:33.461Z,13.46
2018-06-23T09:10:33.395Z,13.47
2018-06-23T09:11:33.391Z,13.62
2018-06-23T09:12:33.395Z,13.81
2018-06-23T09:13:33.431Z,13.75
2018-06-23T09:14:33.397Z,13.75
2018-06-23T09:15:33.395Z,13.68
2018-06-23T09:16:33.400Z,13.57
2018-06-23T09:17:33.398Z,13.35
2018-06-23T09:18:33.399Z,13.22
2018-06-23T09:19:33.457Z,13.16
2018-06-23T09:20:33.399Z,13.12
2018-06-23T09:21:33.401Z,13.13
2018-06-23T09:22:33.402Z,13.11
2018-06-23T09:23:33.406Z,13.08
2018-06-23T09:24:33.412Z,13.05
2018-06-23T09:25:33.413Z,13.08
2018-06-23T09:26:33.396Z,13.16
2018-06-23T09:27:33.402Z,13.05
2018-06-23T09:28:33.399Z,12.87
2018-06-23T09:29:33.401Z,12.93
2018-06-23T09:30:33.400Z,12.91
2018-06-23T09:31:33.401Z,12.91
2018-06-23T09:32:33.398Z,12.91
2018-06-23T09:33:33.402Z,12.86
2018-06-23T09:34:33.455Z,12.83
2018-06-23T09:35:33.402Z,12.80
2018-06-23T09:36:33.402Z,12.75
2018-06-23T09:37:33.414Z,12.62
2018-06-23T09:38:33.405Z,12.61
2018-06-23T09:39:33.405Z,12.80
2018-06-23T09:40:33.402Z,12.79
2018-06-23T09:41:33.401Z,12.85
2018-06-23T09:42:33.401Z,12.90
2018-06-23T09:43:33.401Z,12.68
2018-06-23T09:44:33.400Z,12.85
2018-06-23T09:45:33.400Z,12.82
2018-06-23T09:46:33.404Z,12.87
2018-06-23T09:47:33.396Z,12.68
2018-06-23T09:48:33.398Z,12.72
2018-06-23T09:49:33.399Z,12.93
2018-06-23T09:50:33.402Z,12.93
2018-06-23T09:51:33.399Z,13.01
2018-06-23T09:52:33.395Z,13.09
2018-06-23T09:53:33.397Z,13.08
2018-06-23T09:54:33.392Z,13.12
2018-06-23T09:55:33.396Z,13.08
2018-06-23T09:56:33.397Z,13.05
2018-06-23T09:57:33.394Z,12.97
2018-06-23T09:58:33.413Z,13.09
2018-06-23T09:59:33.399Z,13.05
2018-06-23T10:00:33.405Z,13.16
2018-06-23T10:01:33.396Z,13.23
2018-06-23T10:02:33.397Z,13.25
2018-06-23T10:03:33.397Z,13.35
2018-06-23T10:04:33.415Z,13.52
2018-06-23T10:05:33.396Z,13.53
2018-06-23T10:06:33.396Z,13.59
2018-06-23T10:07:33.398Z,13.70
2018-06-23T10:08:33.457Z,13.59
2018-06-23T10:09:33.396Z,13.57
2018-06-23T10:10:33.407Z,13.60
2018-06-23T10:11:33.396Z,13.56
2018-06-23T10:12:33.392Z,13.57
2018-06-23T10:13:33.398Z,13.53
2018-06-23T10:14:33.394Z,13.44
2018-06-23T10:15:33.454Z,13.37
2018-06-23T10:16:33.397Z,13.19
2018-06-23T10:17:33.403Z,13.33
2018-06-23T10:18:33.399Z,13.27
2018-06-23T10:19:33.396Z,13.28
2018-06-23T10:20:33.399Z,13.30
2018-06-23T10:21:33.422Z,13.42
2018-06-23T10:22:33.398Z,13.46
2018-06-23T10:23:33.402Z,13.52
2018-06-23T10:24:33.439Z,13.52
2018-06-23T10:25:33.396Z,13.49
2018-06-23T10:26:33.401Z,13.54
2018-06-23T10:27:33.397Z,13.46
2018-06-23T10:28:33.400Z,13.41
2018-06-23T10:29:33.398Z,13.25
2018-06-23T10:30:33.402Z,13.31
2018-06-23T10:31:33.401Z,13.35
2018-06-23T10:32:33.401Z,13.44
2018-06-23T10:33:33.395Z,13.50
2018-06-23T10:34:33.420Z,13.41
2018-06-23T10:35:33.402Z,13.42
2018-06-23T10:36:33.419Z,13.37
2018-06-23T10:37:33.401Z,13.42
2018-06-23T10:38:33.460Z,13.33
2018-06-23T10:39:33.402Z,13.35
2018-06-23T10:40:33.399Z,13.37
2018-06-23T10:41:33.401Z,13.33
2018-06-23T10:42:33.403Z,13.35
2018-06-23T10:43:33.406Z,13.37
2018-06-23T10:44:33.404Z,13.23
2018-06-23T10:45:33.402Z,13.23
2018-06-23T10:46:33.402Z,13.15
2018-06-23T10:47:33.402Z,13.16
2018-06-23T10:48:33.403Z,13.12
2018-06-23T10:49:33.403Z,13.30
2018-06-23T10:50:33.404Z,13.33
2018-06-23T10:51:33.404Z,13.44
2018-06-23T10:52:33.400Z,13.33
2018-06-23T10:53:33.408Z,13.33
2018-06-23T10:54:33.403Z,13.18
2018-06-23T10:55:33.411Z,13.16
2018-06-23T10:56:33.402Z,13.31
2018-06-23T10:57:33.402Z,13.22
2018-06-23T10:58:33.407Z,13.44
2018-06-23T10:59:33.409Z,13.31
2018-06-23T11:00:33.399Z,13.25
2018-06-23T11:01:33.403Z,13.33
2018-06-23T11:02:33.398Z,13.28
2018-06-23T11:03:33.404Z,13.33
2018-06-23T11:04:33.464Z,13.33
2018-06-23T11:05:33.401Z,13.33
2018-06-23T11:06:33.405Z,13.38
2018-06-23T11:07:33.403Z,13.50
2018-06-23T11:08:33.400Z,13.52
2018-06-23T11:09:33.406Z,13.62
2018-06-23T11:10:33.402Z,13.59
2018-06-23T11:11:33.398Z,13.57
2018-06-23T11:12:33.404Z,13.59
2018-06-23T11:13:33.403Z,13.70
2018-06-23T11:14:33.402Z,13.68
2018-06-23T11:15:33.403Z,13.85
2018-06-23T11:16:33.403Z,13.79
2018-06-23T11:17:33.452Z,13.83
2018-06-23T11:18:33.406Z,13.71
2018-06-23T11:19:33.398Z,13.68
2018-06-23T11:20:33.403Z,13.62
2018-06-23T11:21:33.412Z,13.59
2018-06-23T11:22:33.404Z,13.56
2018-06-23T11:23:33.406Z,13.50
2018-06-23T11:24:33.551Z,13.49
2018-06-23T11:25:33.404Z,13.57
2018-06-23T11:26:33.406Z,13.54
2018-06-23T11:27:33.408Z,13.59
2018-06-23T11:28:33.404Z,13.46
2018-06-23T11:29:33.405Z,13.53
2018-06-23T11:30:33.405Z,13.54
2018-06-23T11:31:33.408Z,13.54
2018-06-23T11:32:33.414Z,13.60
2018-06-23T11:33:33.403Z,13.56
2018-06-23T11:34:33.410Z,13.57
2018-06-23T11:35:33.408Z,13.49
2018-06-23T11:36:33.405Z,13.38
2018-06-23T11:37:33.405Z,13.30
2018-06-23T11:38:33.407Z,13.30
2018-06-23T11:39:33.406Z,13.31
2018-06-23T11:40:33.404Z,13.31
2018-06-23T11:41:33.405Z,13.44
2018-06-23T11:42:33.409Z,13.49
2018-06-23T11:43:33.410Z,13.28
2018-06-23T11:44:33.422Z,13.31
2018-06-23T11:45:33.404Z,13.23
2018-06-23T11:46:33.414Z,13.35
2018-06-23T11:47:33.401Z,13.53
2018-06-23T11:48:33.410Z,13.53
2018-06-23T11:49:33.460Z,13.52
2018-06-23T11:50:33.413Z,13.62
2018-06-23T11:51:33.404Z,13.65
2018-06-23T11:52:33.405Z,13.70
2018-06-23T11:53:33.403Z,13.87
2018-06-23T11:54:33.410Z,13.78
2018-06-23T11:55:33.404Z,13.79
2018-06-23T11:56:33.403Z,13.71
2018-06-23T11:57:33.404Z,13.68
2018-06-23T11:58:33.405Z,13.57
2018-06-23T11:59:33.406Z,13.57
2018-06-23T12:00:33.423Z,13.68
2018-06-23T12:01:33.418Z,13.70
2018-06-23T12:02:33.403Z,13.67
2018-06-23T12:03:33.419Z,13.70
2018-06-23T12:04:33.399Z,13.83
2018-06-23T12:05:33.404Z,13.86
2018-06-23T12:06:33.406Z,13.92
2018-06-23T12:07:33.406Z,13.99
2018-06-23T12:08:33.406Z,14.00
2018-06-23T12:09:33.404Z,14.10
2018-06-23T12:10:33.405Z,14.07
2018-06-23T12:11:33.402Z,14.10
2018-06-23T12:12:33.399Z,14.05
2018-06-23T12:13:33.417Z,13.95
2018-06-23T12:14:33.409Z,13.97
2018-06-23T12:15:33.409Z,13.99
2018-06-23T12:16:33.407Z,13.97
2018-06-23T12:17:33.407Z,13.99
2018-06-23T12:18:33.401Z,14.08
2018-06-23T12:19:33.408Z,14.15
2018-06-23T12:20:33.406Z,14.28
2018-06-23T12:21:33.411Z,14.08
2018-06-23T12:22:33.415Z,14.08
2018-06-23T12:23:33.423Z,14.10
2018-06-23T12:24:33.410Z,14.08
2018-06-23T12:25:33.502Z,14.11
2018-06-23T12:26:33.405Z,14.08
2018-06-23T12:27:33.410Z,14.12
2018-06-23T12:28:33.411Z,14.05
2018-06-23T12:29:33.415Z,14.11
2018-06-23T12:30:33.430Z,14.22
2018-06-23T12:31:33.412Z,14.20
2018-06-23T12:32:33.416Z,14.30
2018-06-23T12:33:33.410Z,14.14
2018-06-23T12:34:33.417Z,14.10
2018-06-23T12:35:33.416Z,14.08
2018-06-23T12:36:33.414Z,14.29
2018-06-23T12:37:33.416Z,14.18
2018-06-23T12:38:33.417Z,14.15
2018-06-23T12:39:33.418Z,14.29
2018-06-23T12:40:33.416Z,14.23
2018-06-23T12:41:33.482Z,14.35
2018-06-23T12:42:33.421Z,14.37
2018-06-23T12:43:33.420Z,14.44
2018-06-23T12:44:33.422Z,14.33
2018-06-23T12:45:33.431Z,14.33
2018-06-23T12:46:33.420Z,14.36
2018-06-23T12:47:33.415Z,14.45
2018-06-23T12:48:33.618Z,14.48
2018-06-23T12:49:33.424Z,14.50
2018-06-23T12:50:33.421Z,14.54
2018-06-23T12:51:33.434Z,14.68
2018-06-23T12:52:33.421Z,14.82